Hlavní strana
METAR-TAF:

METAR-TAF

Letiště :

Cape Girardeau, Missouri, Spojené státy americké

zeměpisná šířka: 37-13-32N, zeměpisná délka: 089-34-42W, výška: 104 m

Aktuální stav počasí

Zpráva byla vytvořena před 33 minutami, v 21:53 UTC
Severoseverovýchodní vítr 11 kt
Teplota 12°C
Vlhkost vzduchu 38%
Tlak 1026 hPa
Viditelnost: 16.1 km
Jasno

METAR: KCGI 252153Z 03011KT 10SM CLR 12/M02 A3031 RMK AO2 SLP265 T01171017

Čas: 16:26 (22:26 UTC)

Předpověď počasí

Zpráva byla vytvořena před 5 hodinami a 6 minutami, v 17:20 UTC
Předpověď platná od 25 v 18 UTC do 26 v 18 UTC
Severní vítr 8 kt
Viditelnost: 10 km
Skoro jasno ve výšce 25000 ft
Od 26 v 0200 UTC
Severovýchodní vítr 5 kt
Viditelnost: 10 km
Oblačno až skoro zataženo ve výšce 15000 ft

TAF: KCGI 251720Z 2518/2618 01008KT P6SM FEW250 FM260200 04005KT P6SM BKN150

Stav a předpovědi počasí z více než 4 000 letišť (zprávy METAR a TAF).

Červené a žluté tečky na mapě představují dostupné meteorologické stanice.

Když kurzor umístíte na tečku, zobrazí se název stanice.

Pak kliknutím zobrazíte stav a předpověď počasí.

Chcete-li změnit mapu, kliknutím na zelené tlačítko se znaménkem +mapu přiblížíte, kliknutím na zelené tlačítko se znaménkem – mapu oddálíte a kliknutím na zelené šipky přejdete na sousední mapy.


METAR-TAF: